createdAt,value
2023-09-10T00:00:11.121Z,6.20
2023-09-10T00:02:40.077Z,5.53
2023-09-10T00:05:09.939Z,6.20
2023-09-10T00:07:38.885Z,5.60
2023-09-10T00:10:08.771Z,5.82
2023-09-10T00:12:39.016Z,6.07
2023-09-10T00:15:09.010Z,6.28
2023-09-10T00:17:37.925Z,5.95
2023-09-10T00:20:09.512Z,5.80
2023-09-10T00:22:39.156Z,5.60
2023-09-10T00:25:08.458Z,6.22
2023-09-10T00:27:38.778Z,6.32
2023-09-10T00:30:08.933Z,6.35
2023-09-10T00:32:37.792Z,6.20
2023-09-10T00:35:08.885Z,6.10
2023-09-10T00:37:37.818Z,5.80
2023-09-10T00:40:07.650Z,6.43
2023-09-10T00:42:37.267Z,6.00
2023-09-10T00:45:09.626Z,6.43
2023-09-10T00:47:42.045Z,5.75
2023-09-10T00:50:12.222Z,6.00
2023-09-10T00:52:45.313Z,6.55
2023-09-10T00:55:15.551Z,6.35
2023-09-10T00:57:45.379Z,6.40
2023-09-10T01:00:17.389Z,6.15
2023-09-10T01:02:47.366Z,6.07
2023-09-10T01:05:18.596Z,6.38
2023-09-10T01:07:48.023Z,6.53
2023-09-10T01:10:16.975Z,6.00
2023-09-10T01:12:53.163Z,6.45
2023-09-10T01:15:31.126Z,5.82
2023-09-10T01:18:07.929Z,6.72
2023-09-10T01:20:51.252Z,6.63
2023-09-10T01:23:33.387Z,6.45
2023-09-10T01:26:04.664Z,6.43
2023-09-10T01:28:33.697Z,6.50
2023-09-10T01:31:02.946Z,6.80
2023-09-10T01:33:36.472Z,6.13
2023-09-10T01:36:11.791Z,6.75
2023-09-10T01:38:45.851Z,6.80
2023-09-10T01:41:18.927Z,7.03
2023-09-10T01:43:49.087Z,5.88
2023-09-10T01:46:18.991Z,6.22
2023-09-10T01:48:48.449Z,6.38
2023-09-10T01:51:19.290Z,6.45
2023-09-10T01:53:48.737Z,6.65
2023-09-10T01:56:19.544Z,6.75
2023-09-10T01:58:48.520Z,6.60
2023-09-10T02:01:17.440Z,6.18
2023-09-10T02:03:46.467Z,7.28
2023-09-10T02:06:15.392Z,6.95
2023-09-10T02:08:44.225Z,6.68
2023-09-10T02:11:13.696Z,6.68
2023-09-10T02:13:45.167Z,7.35
2023-09-10T02:16:14.166Z,7.20
2023-09-10T02:18:43.196Z,6.50
2023-09-10T02:21:12.713Z,7.50
2023-09-10T02:23:43.282Z,7.10
2023-09-10T02:26:12.253Z,6.90
2023-09-10T02:28:41.591Z,6.45
2023-09-10T02:31:11.986Z,6.43
2023-09-10T02:33:40.893Z,6.90
2023-09-10T02:36:10.005Z,6.75
2023-09-10T02:38:39.121Z,6.97
2023-09-10T02:41:09.016Z,6.90
2023-09-10T02:43:38.100Z,7.20
2023-09-10T02:46:07.389Z,7.05
2023-09-10T02:48:37.908Z,6.88
2023-09-10T02:51:07.160Z,6.80
2023-09-10T02:53:36.307Z,6.63
2023-09-10T02:56:05.588Z,7.60
2023-09-10T02:58:34.684Z,7.28
2023-09-10T03:01:08.104Z,6.90
2023-09-10T03:03:38.538Z,7.30
2023-09-10T03:06:14.071Z,6.80
2023-09-10T03:08:43.935Z,7.35
2023-09-10T03:11:13.116Z,7.38
2023-09-10T03:13:42.238Z,6.75
2023-09-10T03:16:11.262Z,6.90
2023-09-10T03:18:41.859Z,7.30
2023-09-10T03:21:11.029Z,6.70
2023-09-10T03:23:40.027Z,7.07
2023-09-10T03:26:12.645Z,6.78
2023-09-10T03:28:43.164Z,7.75
2023-09-10T03:31:12.309Z,7.47
2023-09-10T03:33:42.932Z,7.00
2023-09-10T03:36:12.448Z,7.55
2023-09-10T03:38:41.754Z,7.57
2023-09-10T03:41:11.139Z,6.95
2023-09-10T03:43:41.543Z,8.30
2023-09-10T03:46:10.819Z,6.70
2023-09-10T03:48:40.210Z,7.07
2023-09-10T03:51:11.160Z,7.05
2023-09-10T03:53:40.375Z,7.15
2023-09-10T03:56:09.738Z,6.90
2023-09-10T03:58:39.053Z,7.25
2023-09-10T04:01:08.259Z,7.25
2023-09-10T04:03:37.294Z,7.18
2023-09-10T04:06:06.360Z,8.05
2023-09-10T04:08:37.542Z,7.15
2023-09-10T04:11:07.874Z,6.80
2023-09-10T04:13:36.834Z,6.88
2023-09-10T04:16:05.989Z,7.18
2023-09-10T04:18:36.022Z,7.25
2023-09-10T04:21:05.910Z,6.47
2023-09-10T04:23:36.346Z,7.10
2023-09-10T04:26:05.516Z,7.00
2023-09-10T04:28:34.662Z,7.20
2023-09-10T04:31:04.773Z,6.65
2023-09-10T04:33:33.767Z,6.95
2023-09-10T04:36:02.669Z,7.30
2023-09-10T04:38:31.810Z,6.43
2023-09-10T04:41:02.486Z,6.45
2023-09-10T04:43:31.653Z,6.82
2023-09-10T04:46:01.086Z,7.13
2023-09-10T04:48:30.754Z,7.03
2023-09-10T04:50:59.766Z,6.88
2023-09-10T04:53:29.077Z,6.78
2023-09-10T04:55:58.223Z,7.13
2023-09-10T04:58:30.587Z,7.43
2023-09-10T05:00:59.625Z,7.05
2023-09-10T05:03:29.261Z,6.85
2023-09-10T05:05:59.478Z,7.25
2023-09-10T05:08:29.114Z,6.88
2023-09-10T05:10:58.286Z,7.30
2023-09-10T05:13:27.588Z,6.43
2023-09-10T05:15:58.841Z,7.30
2023-09-10T05:18:28.688Z,7.20
2023-09-10T05:20:57.668Z,7.25
2023-09-10T05:23:28.859Z,6.68
2023-09-10T05:25:58.556Z,6.72
2023-09-10T05:28:27.536Z,7.03
2023-09-10T05:30:57.827Z,7.05
2023-09-10T05:33:26.887Z,7.60
2023-09-10T05:35:57.591Z,6.88
2023-09-10T05:38:28.090Z,6.35
2023-09-10T05:41:01.897Z,6.78
2023-09-10T05:43:31.378Z,7.00
2023-09-10T05:46:02.213Z,7.03
2023-09-10T05:48:32.152Z,7.05
2023-09-10T05:51:01.457Z,6.97
2023-09-10T05:53:32.477Z,7.47
2023-09-10T05:56:05.019Z,7.13
2023-09-10T05:58:34.860Z,6.82
2023-09-10T06:01:05.863Z,7.80
2023-09-10T06:03:35.343Z,6.68
2023-09-10T06:06:05.010Z,6.90
2023-09-10T06:08:34.130Z,7.00
2023-09-10T06:11:03.132Z,7.07
2023-09-10T06:13:33.065Z,6.70
2023-09-10T06:16:03.992Z,7.65
2023-09-10T06:18:34.982Z,7.57
2023-09-10T06:21:04.197Z,7.80
2023-09-10T06:23:33.639Z,7.10
2023-09-10T06:26:02.689Z,8.02
2023-09-10T06:28:31.890Z,7.40
2023-09-10T06:31:01.182Z,8.07
2023-09-10T06:33:30.367Z,7.60
2023-09-10T06:36:00.939Z,7.75
2023-09-10T06:38:30.388Z,7.78
2023-09-10T06:40:59.987Z,6.85
2023-09-10T06:43:29.339Z,7.55
2023-09-10T06:46:09.472Z,7.60
2023-09-10T06:48:38.748Z,7.43
2023-09-10T06:51:09.286Z,7.47
2023-09-10T06:53:38.148Z,7.72
2023-09-10T06:56:07.170Z,8.15
2023-09-10T06:58:36.248Z,7.82
2023-09-10T07:01:10.310Z,7.85
2023-09-10T07:03:40.082Z,8.35
2023-09-10T07:06:10.444Z,7.60
2023-09-10T07:08:39.808Z,7.30
2023-09-10T07:11:09.370Z,8.18
2023-09-10T07:13:38.973Z,7.85
2023-09-10T07:16:08.011Z,8.05
2023-09-10T07:18:37.789Z,7.68
2023-09-10T07:21:07.102Z,7.95
2023-09-10T07:23:37.459Z,8.27
2023-09-10T07:26:06.453Z,7.80
2023-09-10T07:28:35.409Z,8.02
2023-09-10T07:31:04.687Z,8.02
2023-09-10T07:33:33.666Z,7.93
2023-09-10T07:36:02.651Z,7.90
2023-09-10T07:38:31.693Z,8.35
2023-09-10T07:41:02.128Z,8.07
2023-09-10T07:43:31.310Z,9.75
2023-09-10T07:46:00.506Z,11.48
